sensor_id;sensor_type;location;lat;lon;timestamp;P1;durP1;ratioP1;P2;durP2;ratioP2
37091;SDS011;23005;51.998;4.502;2022-09-01T00:01:15;3.67;;;1.98;;
37091;SDS011;23005;51.998;4.502;2022-09-01T00:03:08;2.97;;;1.80;;
37091;SDS011;23005;51.998;4.502;2022-09-01T00:04:58;13.20;;;2.50;;
37091;SDS011;23005;51.998;4.502;2022-09-01T00:06:49;6.43;;;2.20;;
37091;SDS011;23005;51.998;4.502;2022-09-01T00:08:40;4.68;;;2.13;;
37091;SDS011;23005;51.998;4.502;2022-09-01T00:10:30;4.18;;;2.28;;
37091;SDS011;23005;51.998;4.502;2022-09-01T00:12:21;4.07;;;2.08;;
37091;SDS011;23005;51.998;4.502;2022-09-01T00:14:12;10.63;;;2.20;;
37091;SDS011;23005;51.998;4.502;2022-09-01T00:16:19;5.80;;;2.60;;
37091;SDS011;23005;51.998;4.502;2022-09-01T00:18:11;6.40;;;2.40;;
37091;SDS011;23005;51.998;4.502;2022-09-01T00:20:02;9.80;;;2.53;;
37091;SDS011;23005;51.998;4.502;2022-09-01T00:21:54;7.05;;;2.88;;
37091;SDS011;23005;51.998;4.502;2022-09-01T00:23:45;4.18;;;2.05;;
37091;SDS011;23005;51.998;4.502;2022-09-01T00:25:36;7.63;;;2.70;;
37091;SDS011;23005;51.998;4.502;2022-09-01T00:27:26;7.80;;;2.75;;
37091;SDS011;23005;51.998;4.502;2022-09-01T00:29:20;3.15;;;2.50;;
37091;SDS011;23005;51.998;4.502;2022-09-01T00:31:11;3.67;;;2.10;;
37091;SDS011;23005;51.998;4.502;2022-09-01T00:33:02;5.03;;;2.30;;
37091;SDS011;23005;51.998;4.502;2022-09-01T00:34:54;5.53;;;2.30;;
37091;SDS011;23005;51.998;4.502;2022-09-01T00:36:45;5.38;;;2.25;;
37091;SDS011;23005;51.998;4.502;2022-09-01T00:38:35;3.92;;;2.33;;
37091;SDS011;23005;51.998;4.502;2022-09-01T00:40:26;8.70;;;2.78;;
37091;SDS011;23005;51.998;4.502;2022-09-01T00:42:17;3.85;;;2.60;;
37091;SDS011;23005;51.998;4.502;2022-09-01T00:44:09;5.60;;;2.60;;
37091;SDS011;23005;51.998;4.502;2022-09-01T00:46:02;9.88;;;2.55;;
37091;SDS011;23005;51.998;4.502;2022-09-01T00:49:48;6.22;;;2.45;;
37091;SDS011;23005;51.998;4.502;2022-09-01T00:51:43;6.38;;;2.25;;
37091;SDS011;23005;51.998;4.502;2022-09-01T00:53:35;4.25;;;2.45;;
37091;SDS011;23005;51.998;4.502;2022-09-01T00:55:29;4.55;;;2.50;;
37091;SDS011;23005;51.998;4.502;2022-09-01T00:57:21;5.60;;;2.28;;
37091;SDS011;23005;51.998;4.502;2022-09-01T00:59:12;5.22;;;2.65;;
37091;SDS011;23005;51.998;4.502;2022-09-01T01:01:06;3.63;;;2.33;;
37091;SDS011;23005;51.998;4.502;2022-09-01T01:02:58;7.00;;;2.55;;
37091;SDS011;23005;51.998;4.502;2022-09-01T01:04:49;5.65;;;2.60;;
37091;SDS011;23005;51.998;4.502;2022-09-01T01:06:42;5.25;;;2.22;;
37091;SDS011;23005;51.998;4.502;2022-09-01T01:08:35;6.05;;;2.40;;
37091;SDS011;23005;51.998;4.502;2022-09-01T01:10:27;3.80;;;2.47;;
37091;SDS011;23005;51.998;4.502;2022-09-01T01:12:20;3.58;;;2.53;;
37091;SDS011;23005;51.998;4.502;2022-09-01T01:14:11;9.30;;;2.60;;
37091;SDS011;23005;51.998;4.502;2022-09-01T01:16:02;5.30;;;2.40;;
37091;SDS011;23005;51.998;4.502;2022-09-01T01:17:53;12.68;;;2.70;;
37091;SDS011;23005;51.998;4.502;2022-09-01T01:19:44;7.22;;;2.40;;
37091;SDS011;23005;51.998;4.502;2022-09-01T01:21:38;3.90;;;2.35;;
37091;SDS011;23005;51.998;4.502;2022-09-01T01:23:33;7.32;;;2.28;;
37091;SDS011;23005;51.998;4.502;2022-09-01T01:25:29;7.53;;;2.40;;
37091;SDS011;23005;51.998;4.502;2022-09-01T01:27:22;8.48;;;2.35;;
37091;SDS011;23005;51.998;4.502;2022-09-01T01:29:13;6.82;;;2.63;;
37091;SDS011;23005;51.998;4.502;2022-09-01T01:31:05;10.10;;;2.72;;
37091;SDS011;23005;51.998;4.502;2022-09-01T01:32:57;4.13;;;2.30;;
37091;SDS011;23005;51.998;4.502;2022-09-01T01:34:48;8.50;;;2.40;;
37091;SDS011;23005;51.998;4.502;2022-09-01T01:36:39;3.58;;;2.28;;
37091;SDS011;23005;51.998;4.502;2022-09-01T01:38:29;3.80;;;2.35;;
37091;SDS011;23005;51.998;4.502;2022-09-01T01:40:20;5.22;;;2.70;;
37091;SDS011;23005;51.998;4.502;2022-09-01T01:42:12;4.57;;;2.55;;
37091;SDS011;23005;51.998;4.502;2022-09-01T01:44:03;5.03;;;2.42;;
37091;SDS011;23005;51.998;4.502;2022-09-01T01:45:54;4.07;;;2.10;;
37091;SDS011;23005;51.998;4.502;2022-09-01T01:47:48;6.45;;;2.30;;
37091;SDS011;23005;51.998;4.502;2022-09-01T01:49:39;5.65;;;2.33;;
37091;SDS011;23005;51.998;4.502;2022-09-01T01:51:30;5.43;;;2.47;;
37091;SDS011;23005;51.998;4.502;2022-09-01T01:53:21;5.07;;;2.45;;
37091;SDS011;23005;51.998;4.502;2022-09-01T01:55:11;6.60;;;2.40;;
37091;SDS011;23005;51.998;4.502;2022-09-01T01:57:03;4.13;;;2.33;;
37091;SDS011;23005;51.998;4.502;2022-09-01T01:58:55;5.97;;;2.70;;
37091;SDS011;23005;51.998;4.502;2022-09-01T02:00:46;5.53;;;2.38;;
37091;SDS011;23005;51.998;4.502;2022-09-01T02:02:38;7.90;;;3.50;;
37091;SDS011;23005;51.998;4.502;2022-09-01T02:04:28;11.95;;;2.72;;
37091;SDS011;23005;51.998;4.502;2022-09-01T02:06:20;7.20;;;2.40;;
37091;SDS011;23005;51.998;4.502;2022-09-01T02:08:11;4.63;;;1.90;;
37091;SDS011;23005;51.998;4.502;2022-09-01T02:10:02;6.00;;;2.40;;
37091;SDS011;23005;51.998;4.502;2022-09-01T02:11:53;7.22;;;2.33;;
37091;SDS011;23005;51.998;4.502;2022-09-01T02:13:44;6.15;;;2.25;;
37091;SDS011;23005;51.998;4.502;2022-09-01T02:15:38;5.38;;;2.58;;
37091;SDS011;23005;51.998;4.502;2022-09-01T02:17:32;5.40;;;2.72;;
37091;SDS011;23005;51.998;4.502;2022-09-01T02:19:23;7.95;;;2.63;;
37091;SDS011;23005;51.998;4.502;2022-09-01T02:21:14;6.47;;;2.60;;
37091;SDS011;23005;51.998;4.502;2022-09-01T02:23:07;5.28;;;2.55;;
37091;SDS011;23005;51.998;4.502;2022-09-01T02:24:58;7.72;;;2.40;;
37091;SDS011;23005;51.998;4.502;2022-09-01T02:26:49;5.55;;;2.60;;
37091;SDS011;23005;51.998;4.502;2022-09-01T02:28:39;8.80;;;2.83;;
37091;SDS011;23005;51.998;4.502;2022-09-01T02:30:30;6.78;;;2.50;;
37091;SDS011;23005;51.998;4.502;2022-09-01T02:32:22;4.47;;;2.25;;
37091;SDS011;23005;51.998;4.502;2022-09-01T02:34:13;5.85;;;2.75;;
37091;SDS011;23005;51.998;4.502;2022-09-01T02:36:05;9.52;;;2.90;;
37091;SDS011;23005;51.998;4.502;2022-09-01T02:37:57;4.80;;;2.60;;
37091;SDS011;23005;51.998;4.502;2022-09-01T02:39:47;4.38;;;2.53;;
37091;SDS011;23005;51.998;4.502;2022-09-01T02:41:38;13.45;;;2.97;;
37091;SDS011;23005;51.998;4.502;2022-09-01T02:43:29;8.15;;;2.60;;
37091;SDS011;23005;51.998;4.502;2022-09-01T02:45:19;6.65;;;2.58;;
37091;SDS011;23005;51.998;4.502;2022-09-01T02:47:10;9.25;;;2.58;;
37091;SDS011;23005;51.998;4.502;2022-09-01T02:49:01;9.05;;;2.72;;
37091;SDS011;23005;51.998;4.502;2022-09-01T02:50:52;7.70;;;2.65;;
37091;SDS011;23005;51.998;4.502;2022-09-01T02:52:43;5.30;;;2.50;;
37091;SDS011;23005;51.998;4.502;2022-09-01T02:54:34;4.85;;;2.40;;
37091;SDS011;23005;51.998;4.502;2022-09-01T02:56:25;8.02;;;2.83;;
37091;SDS011;23005;51.998;4.502;2022-09-01T02:58:16;8.65;;;2.80;;
37091;SDS011;23005;51.998;4.502;2022-09-01T03:00:08;6.25;;;2.67;;
37091;SDS011;23005;51.998;4.502;2022-09-01T03:01:59;7.55;;;2.72;;
37091;SDS011;23005;51.998;4.502;2022-09-01T03:03:51;6.32;;;2.60;;
37091;SDS011;23005;51.998;4.502;2022-09-01T03:05:45;4.68;;;2.80;;
37091;SDS011;23005;51.998;4.502;2022-09-01T03:07:35;5.05;;;2.85;;
37091;SDS011;23005;51.998;4.502;2022-09-01T03:09:26;6.63;;;2.92;;
37091;SDS011;23005;51.998;4.502;2022-09-01T03:11:17;7.93;;;3.17;;
37091;SDS011;23005;51.998;4.502;2022-09-01T03:13:09;5.28;;;2.88;;
37091;SDS011;23005;51.998;4.502;2022-09-01T03:15:01;8.18;;;3.03;;
37091;SDS011;23005;51.998;4.502;2022-09-01T03:16:52;7.80;;;3.08;;
37091;SDS011;23005;51.998;4.502;2022-09-01T03:18:43;9.52;;;2.58;;
37091;SDS011;23005;51.998;4.502;2022-09-01T03:20:35;9.00;;;2.92;;
37091;SDS011;23005;51.998;4.502;2022-09-01T03:22:27;7.43;;;2.97;;
37091;SDS011;23005;51.998;4.502;2022-09-01T03:24:17;6.53;;;2.72;;
37091;SDS011;23005;51.998;4.502;2022-09-01T03:26:08;8.88;;;2.65;;
37091;SDS011;23005;51.998;4.502;2022-09-01T03:27:58;10.85;;;2.70;;
37091;SDS011;23005;51.998;4.502;2022-09-01T03:29:52;5.88;;;2.33;;
37091;SDS011;23005;51.998;4.502;2022-09-01T03:31:42;4.85;;;2.80;;
37091;SDS011;23005;51.998;4.502;2022-09-01T03:33:34;6.50;;;3.05;;
37091;SDS011;23005;51.998;4.502;2022-09-01T03:35:24;6.78;;;3.22;;
37091;SDS011;23005;51.998;4.502;2022-09-01T03:37:15;6.85;;;3.05;;
37091;SDS011;23005;51.998;4.502;2022-09-01T03:39:07;8.82;;;3.00;;
37091;SDS011;23005;51.998;4.502;2022-09-01T03:41:03;5.55;;;2.60;;
37091;SDS011;23005;51.998;4.502;2022-09-01T03:42:54;12.35;;;2.90;;
37091;SDS011;23005;51.998;4.502;2022-09-01T03:44:44;5.85;;;2.80;;
37091;SDS011;23005;51.998;4.502;2022-09-01T03:46:36;7.53;;;3.13;;
37091;SDS011;23005;51.998;4.502;2022-09-01T03:48:27;5.78;;;2.90;;
37091;SDS011;23005;51.998;4.502;2022-09-01T03:50:20;6.83;;;3.10;;
37091;SDS011;23005;51.998;4.502;2022-09-01T03:52:12;6.65;;;2.95;;
37091;SDS011;23005;51.998;4.502;2022-09-01T03:54:03;8.63;;;2.83;;
37091;SDS011;23005;51.998;4.502;2022-09-01T03:55:56;7.20;;;3.10;;
37091;SDS011;23005;51.998;4.502;2022-09-01T03:57:46;8.70;;;2.85;;
37091;SDS011;23005;51.998;4.502;2022-09-01T03:59:37;5.70;;;2.83;;
37091;SDS011;23005;51.998;4.502;2022-09-01T04:01:28;6.65;;;2.90;;
37091;SDS011;23005;51.998;4.502;2022-09-01T04:03:19;8.02;;;2.97;;
37091;SDS011;23005;51.998;4.502;2022-09-01T04:05:20;4.63;;;2.72;;
37091;SDS011;23005;51.998;4.502;2022-09-01T04:07:11;7.15;;;3.20;;
37091;SDS011;23005;51.998;4.502;2022-09-01T04:09:08;5.80;;;3.08;;
37091;SDS011;23005;51.998;4.502;2022-09-01T04:11:00;8.50;;;3.08;;
37091;SDS011;23005;51.998;4.502;2022-09-01T04:12:52;8.93;;;3.17;;
37091;SDS011;23005;51.998;4.502;2022-09-01T04:14:43;6.07;;;3.00;;
37091;SDS011;23005;51.998;4.502;2022-09-01T04:16:34;5.10;;;2.63;;
37091;SDS011;23005;51.998;4.502;2022-09-01T04:18:25;5.85;;;3.03;;
37091;SDS011;23005;51.998;4.502;2022-09-01T04:20:16;4.15;;;2.72;;
37091;SDS011;23005;51.998;4.502;2022-09-01T04:22:09;10.05;;;3.00;;
37091;SDS011;23005;51.998;4.502;2022-09-01T04:24:00;5.00;;;2.75;;
37091;SDS011;23005;51.998;4.502;2022-09-01T04:25:52;6.55;;;3.20;;
37091;SDS011;23005;51.998;4.502;2022-09-01T04:27:45;6.18;;;3.15;;
37091;SDS011;23005;51.998;4.502;2022-09-01T04:29:36;7.03;;;3.20;;
37091;SDS011;23005;51.998;4.502;2022-09-01T04:31:27;7.65;;;3.30;;
37091;SDS011;23005;51.998;4.502;2022-09-01T04:33:17;10.48;;;3.30;;
37091;SDS011;23005;51.998;4.502;2022-09-01T04:35:08;7.55;;;3.17;;
37091;SDS011;23005;51.998;4.502;2022-09-01T04:36:59;8.30;;;3.45;;
37091;SDS011;23005;51.998;4.502;2022-09-01T04:38:49;10.25;;;3.38;;
37091;SDS011;23005;51.998;4.502;2022-09-01T04:40:41;8.98;;;3.63;;
37091;SDS011;23005;51.998;4.502;2022-09-01T04:42:31;7.50;;;3.42;;
37091;SDS011;23005;51.998;4.502;2022-09-01T04:44:24;7.75;;;3.38;;
37091;SDS011;23005;51.998;4.502;2022-09-01T04:46:14;6.28;;;3.45;;
37091;SDS011;23005;51.998;4.502;2022-09-01T04:48:05;6.68;;;3.40;;
37091;SDS011;23005;51.998;4.502;2022-09-01T04:49:56;7.10;;;3.40;;
37091;SDS011;23005;51.998;4.502;2022-09-01T04:51:47;10.70;;;3.30;;
37091;SDS011;23005;51.998;4.502;2022-09-01T04:53:43;5.57;;;3.17;;
37091;SDS011;23005;51.998;4.502;2022-09-01T04:55:33;6.68;;;3.20;;
37091;SDS011;23005;51.998;4.502;2022-09-01T04:57:27;9.43;;;4.00;;
37091;SDS011;23005;51.998;4.502;2022-09-01T04:59:18;6.90;;;3.50;;
37091;SDS011;23005;51.998;4.502;2022-09-01T05:01:14;9.60;;;3.15;;
37091;SDS011;23005;51.998;4.502;2022-09-01T05:03:06;6.70;;;3.42;;
37091;SDS011;23005;51.998;4.502;2022-09-01T05:04:57;7.20;;;3.55;;
37091;SDS011;23005;51.998;4.502;2022-09-01T05:06:48;4.85;;;3.30;;
37091;SDS011;23005;51.998;4.502;2022-09-01T05:08:40;6.00;;;3.25;;
37091;SDS011;23005;51.998;4.502;2022-09-01T05:10:33;5.18;;;3.33;;
37091;SDS011;23005;51.998;4.502;2022-09-01T05:12:28;6.35;;;3.30;;
37091;SDS011;23005;51.998;4.502;2022-09-01T05:14:18;6.78;;;3.38;;
37091;SDS011;23005;51.998;4.502;2022-09-01T05:16:10;6.85;;;3.80;;
37091;SDS011;23005;51.998;4.502;2022-09-01T05:18:04;6.80;;;3.72;;
37091;SDS011;23005;51.998;4.502;2022-09-01T05:19:54;7.88;;;3.55;;
37091;SDS011;23005;51.998;4.502;2022-09-01T05:21:46;12.07;;;4.20;;
37091;SDS011;23005;51.998;4.502;2022-09-01T05:23:36;7.45;;;3.35;;
37091;SDS011;23005;51.998;4.502;2022-09-01T05:25:27;9.65;;;3.50;;
37091;SDS011;23005;51.998;4.502;2022-09-01T05:27:18;11.13;;;3.58;;
37091;SDS011;23005;51.998;4.502;2022-09-01T05:29:09;7.18;;;3.50;;
37091;SDS011;23005;51.998;4.502;2022-09-01T05:31:00;10.48;;;4.00;;
37091;SDS011;23005;51.998;4.502;2022-09-01T05:32:50;9.30;;;3.42;;
37091;SDS011;23005;51.998;4.502;2022-09-01T05:34:42;9.20;;;4.03;;
37091;SDS011;23005;51.998;4.502;2022-09-01T05:36:33;8.05;;;3.58;;
37091;SDS011;23005;51.998;4.502;2022-09-01T05:38:24;9.18;;;3.72;;
37091;SDS011;23005;51.998;4.502;2022-09-01T05:40:15;6.82;;;3.28;;
37091;SDS011;23005;51.998;4.502;2022-09-01T05:42:06;11.70;;;3.65;;
37091;SDS011;23005;51.998;4.502;2022-09-01T05:43:57;5.88;;;3.53;;
37091;SDS011;23005;51.998;4.502;2022-09-01T05:45:50;7.82;;;3.60;;
37091;SDS011;23005;51.998;4.502;2022-09-01T05:47:56;8.93;;;3.40;;
37091;SDS011;23005;51.998;4.502;2022-09-01T05:49:48;10.98;;;3.90;;
37091;SDS011;23005;51.998;4.502;2022-09-01T05:53:35;13.05;;;4.20;;
37091;SDS011;23005;51.998;4.502;2022-09-01T05:55:26;12.70;;;3.70;;
37091;SDS011;23005;51.998;4.502;2022-09-01T05:57:18;8.10;;;3.67;;
37091;SDS011;23005;51.998;4.502;2022-09-01T05:59:23;10.23;;;4.60;;
37091;SDS011;23005;51.998;4.502;2022-09-01T06:01:16;20.73;;;4.18;;
37091;SDS011;23005;51.998;4.502;2022-09-01T06:03:07;10.00;;;3.60;;
37091;SDS011;23005;51.998;4.502;2022-09-01T06:04:59;7.63;;;3.67;;
37091;SDS011;23005;51.998;4.502;2022-09-01T06:06:50;14.50;;;3.53;;
37091;SDS011;23005;51.998;4.502;2022-09-01T06:08:56;8.27;;;3.33;;
37091;SDS011;23005;51.998;4.502;2022-09-01T06:10:46;8.35;;;3.53;;
37091;SDS011;23005;51.998;4.502;2022-09-01T06:12:37;6.05;;;3.80;;
37091;SDS011;23005;51.998;4.502;2022-09-01T06:14:30;14.52;;;4.10;;
37091;SDS011;23005;51.998;4.502;2022-09-01T06:16:21;7.55;;;3.63;;
37091;SDS011;23005;51.998;4.502;2022-09-01T06:18:15;8.57;;;3.50;;
37091;SDS011;23005;51.998;4.502;2022-09-01T06:20:07;11.95;;;3.40;;
37091;SDS011;23005;51.998;4.502;2022-09-01T06:21:58;7.38;;;3.20;;
37091;SDS011;23005;51.998;4.502;2022-09-01T06:23:49;10.48;;;3.63;;
37091;SDS011;23005;51.998;4.502;2022-09-01T06:25:41;4.57;;;3.20;;
37091;SDS011;23005;51.998;4.502;2022-09-01T06:27:32;8.63;;;3.67;;
37091;SDS011;23005;51.998;4.502;2022-09-01T06:29:23;7.22;;;3.55;;
37091;SDS011;23005;51.998;4.502;2022-09-01T06:31:13;8.70;;;3.30;;
37091;SDS011;23005;51.998;4.502;2022-09-01T06:33:04;6.72;;;3.40;;
37091;SDS011;23005;51.998;4.502;2022-09-01T06:34:55;6.32;;;3.70;;
37091;SDS011;23005;51.998;4.502;2022-09-01T06:36:47;7.65;;;3.53;;
37091;SDS011;23005;51.998;4.502;2022-09-01T06:38:38;9.30;;;3.40;;
37091;SDS011;23005;51.998;4.502;2022-09-01T06:40:28;5.03;;;3.15;;
37091;SDS011;23005;51.998;4.502;2022-09-01T06:42:19;8.80;;;3.58;;
37091;SDS011;23005;51.998;4.502;2022-09-01T06:44:10;13.00;;;3.47;;
37091;SDS011;23005;51.998;4.502;2022-09-01T06:46:03;9.38;;;3.60;;
37091;SDS011;23005;51.998;4.502;2022-09-01T06:47:54;7.35;;;3.20;;
37091;SDS011;23005;51.998;4.502;2022-09-01T06:49:49;14.48;;;3.88;;
37091;SDS011;23005;51.998;4.502;2022-09-01T06:51:47;7.75;;;3.05;;
37091;SDS011;23005;51.998;4.502;2022-09-01T06:53:38;9.23;;;3.83;;
37091;SDS011;23005;51.998;4.502;2022-09-01T06:55:28;9.23;;;3.40;;
37091;SDS011;23005;51.998;4.502;2022-09-01T06:57:21;12.13;;;3.17;;
37091;SDS011;23005;51.998;4.502;2022-09-01T06:59:31;11.20;;;3.20;;
37091;SDS011;23005;51.998;4.502;2022-09-01T07:01:24;14.80;;;3.63;;
37091;SDS011;23005;51.998;4.502;2022-09-01T07:03:15;8.82;;;3.30;;
37091;SDS011;23005;51.998;4.502;2022-09-01T07:05:05;14.10;;;3.72;;
37091;SDS011;23005;51.998;4.502;2022-09-01T07:06:57;8.80;;;3.35;;
37091;SDS011;23005;51.998;4.502;2022-09-01T07:09:08;7.13;;;3.50;;
37091;SDS011;23005;51.998;4.502;2022-09-01T07:11:19;8.77;;;3.08;;
37091;SDS011;23005;51.998;4.502;2022-09-01T07:13:31;8.00;;;3.45;;
37091;SDS011;23005;51.998;4.502;2022-09-01T07:15:42;9.95;;;2.83;;
37091;SDS011;23005;51.998;4.502;2022-09-01T07:17:53;11.63;;;3.67;;
37091;SDS011;23005;51.998;4.502;2022-09-01T07:19:44;11.85;;;3.20;;
37091;SDS011;23005;51.998;4.502;2022-09-01T07:21:38;6.15;;;3.35;;
37091;SDS011;23005;51.998;4.502;2022-09-01T07:23:50;14.52;;;3.30;;
37091;SDS011;23005;51.998;4.502;2022-09-01T07:26:03;9.77;;;3.13;;
37091;SDS011;23005;51.998;4.502;2022-09-01T07:27:55;6.72;;;2.70;;
37091;SDS011;23005;51.998;4.502;2022-09-01T07:29:49;11.85;;;2.92;;
37091;SDS011;23005;51.998;4.502;2022-09-01T07:31:40;7.68;;;2.92;;
37091;SDS011;23005;51.998;4.502;2022-09-01T07:33:39;6.43;;;2.67;;
37091;SDS011;23005;51.998;4.502;2022-09-01T07:35:30;8.68;;;3.08;;
37091;SDS011;23005;51.998;4.502;2022-09-01T07:37:21;10.40;;;3.10;;
37091;SDS011;23005;51.998;4.502;2022-09-01T07:39:33;10.65;;;3.25;;
37091;SDS011;23005;51.998;4.502;2022-09-01T07:41:40;11.80;;;3.58;;
37091;SDS011;23005;51.998;4.502;2022-09-01T07:43:51;12.77;;;3.20;;
37091;SDS011;23005;51.998;4.502;2022-09-01T07:45:43;9.75;;;2.92;;
37091;SDS011;23005;51.998;4.502;2022-09-01T07:47:47;5.55;;;2.70;;
37091;SDS011;23005;51.998;4.502;2022-09-01T07:49:42;8.23;;;2.63;;
37091;SDS011;23005;51.998;4.502;2022-09-01T07:51:52;7.43;;;2.95;;
37091;SDS011;23005;51.998;4.502;2022-09-01T07:53:43;7.85;;;3.17;;
37091;SDS011;23005;51.998;4.502;2022-09-01T07:55:36;9.57;;;2.97;;
37091;SDS011;23005;51.998;4.502;2022-09-01T07:57:28;8.52;;;2.63;;
37091;SDS011;23005;51.998;4.502;2022-09-01T07:59:18;6.80;;;3.03;;
37091;SDS011;23005;51.998;4.502;2022-09-01T08:01:10;6.65;;;2.60;;
37091;SDS011;23005;51.998;4.502;2022-09-01T08:03:01;10.48;;;3.33;;
37091;SDS011;23005;51.998;4.502;2022-09-01T08:04:52;11.00;;;2.80;;
37091;SDS011;23005;51.998;4.502;2022-09-01T08:06:43;5.72;;;2.67;;
37091;SDS011;23005;51.998;4.502;2022-09-01T08:08:34;7.25;;;3.20;;
37091;SDS011;23005;51.998;4.502;2022-09-01T08:10:25;13.88;;;3.20;;
37091;SDS011;23005;51.998;4.502;2022-09-01T08:12:17;8.95;;;2.92;;
37091;SDS011;23005;51.998;4.502;2022-09-01T08:14:09;10.75;;;3.25;;
37091;SDS011;23005;51.998;4.502;2022-09-01T08:16:01;9.77;;;3.10;;
37091;SDS011;23005;51.998;4.502;2022-09-01T08:17:57;6.13;;;2.83;;
37091;SDS011;23005;51.998;4.502;2022-09-01T08:19:48;5.57;;;2.40;;
37091;SDS011;23005;51.998;4.502;2022-09-01T08:21:39;8.38;;;3.03;;
37091;SDS011;23005;51.998;4.502;2022-09-01T08:23:29;9.60;;;2.90;;
37091;SDS011;23005;51.998;4.502;2022-09-01T08:25:20;6.78;;;3.00;;
37091;SDS011;23005;51.998;4.502;2022-09-01T08:27:14;9.30;;;2.58;;
37091;SDS011;23005;51.998;4.502;2022-09-01T08:29:06;13.65;;;3.15;;
37091;SDS011;23005;51.998;4.502;2022-09-01T08:30:57;10.55;;;3.28;;
37091;SDS011;23005;51.998;4.502;2022-09-01T08:32:47;11.25;;;2.95;;
37091;SDS011;23005;51.998;4.502;2022-09-01T08:34:38;8.48;;;2.97;;
37091;SDS011;23005;51.998;4.502;2022-09-01T08:36:28;7.07;;;2.70;;
37091;SDS011;23005;51.998;4.502;2022-09-01T08:38:19;7.10;;;3.08;;
37091;SDS011;23005;51.998;4.502;2022-09-01T08:40:10;7.95;;;2.70;;
37091;SDS011;23005;51.998;4.502;2022-09-01T08:42:05;7.82;;;2.78;;
37091;SDS011;23005;51.998;4.502;2022-09-01T08:44:02;12.52;;;3.17;;
37091;SDS011;23005;51.998;4.502;2022-09-01T08:46:01;6.20;;;2.80;;
37091;SDS011;23005;51.998;4.502;2022-09-01T08:47:58;14.05;;;3.65;;
37091;SDS011;23005;51.998;4.502;2022-09-01T08:50:12;10.45;;;3.03;;
37091;SDS011;23005;51.998;4.502;2022-09-01T08:52:05;7.67;;;2.70;;
37091;SDS011;23005;51.998;4.502;2022-09-01T08:54:02;5.22;;;2.45;;
37091;SDS011;23005;51.998;4.502;2022-09-01T08:55:58;7.63;;;2.83;;
37091;SDS011;23005;51.998;4.502;2022-09-01T08:57:49;11.13;;;2.60;;
37091;SDS011;23005;51.998;4.502;2022-09-01T08:59:49;5.57;;;2.47;;
37091;SDS011;23005;51.998;4.502;2022-09-01T09:01:42;8.32;;;2.70;;
37091;SDS011;23005;51.998;4.502;2022-09-01T09:03:36;12.05;;;2.55;;
37091;SDS011;23005;51.998;4.502;2022-09-01T09:05:34;3.92;;;2.58;;
37091;SDS011;23005;51.998;4.502;2022-09-01T09:07:38;8.65;;;2.75;;
37091;SDS011;23005;51.998;4.502;2022-09-01T09:09:36;7.05;;;2.58;;
37091;SDS011;23005;51.998;4.502;2022-09-01T09:13:54;8.38;;;2.60;;
37091;SDS011;23005;51.998;4.502;2022-09-01T09:15:51;8.48;;;2.90;;
37091;SDS011;23005;51.998;4.502;2022-09-01T09:17:58;8.38;;;2.22;;
37091;SDS011;23005;51.998;4.502;2022-09-01T09:20:16;4.97;;;2.30;;
37091;SDS011;23005;51.998;4.502;2022-09-01T09:22:11;7.45;;;2.90;;
37091;SDS011;23005;51.998;4.502;2022-09-01T09:24:06;9.80;;;2.80;;
37091;SDS011;23005;51.998;4.502;2022-09-01T09:25:59;10.07;;;2.75;;
37091;SDS011;23005;51.998;4.502;2022-09-01T09:27:50;7.82;;;2.50;;
37091;SDS011;23005;51.998;4.502;2022-09-01T09:29:51;11.32;;;2.90;;
37091;SDS011;23005;51.998;4.502;2022-09-01T09:31:44;7.50;;;2.83;;
37091;SDS011;23005;51.998;4.502;2022-09-01T09:33:36;8.40;;;2.33;;
37091;SDS011;23005;51.998;4.502;2022-09-01T09:35:41;9.52;;;2.95;;
37091;SDS011;23005;51.998;4.502;2022-09-01T09:37:32;4.22;;;2.38;;
37091;SDS011;23005;51.998;4.502;2022-09-01T09:39:25;6.90;;;2.65;;
37091;SDS011;23005;51.998;4.502;2022-09-01T09:41:16;7.30;;;2.40;;
37091;SDS011;23005;51.998;4.502;2022-09-01T09:43:15;6.97;;;2.25;;
37091;SDS011;23005;51.998;4.502;2022-09-01T09:45:12;7.72;;;2.17;;
37091;SDS011;23005;51.998;4.502;2022-09-01T09:47:14;10.55;;;2.72;;
37091;SDS011;23005;51.998;4.502;2022-09-01T09:49:33;8.60;;;2.95;;
37091;SDS011;23005;51.998;4.502;2022-09-01T09:51:32;10.15;;;2.10;;
37091;SDS011;23005;51.998;4.502;2022-09-01T09:53:25;6.78;;;1.98;;
37091;SDS011;23005;51.998;4.502;2022-09-01T09:55:19;6.35;;;2.20;;
37091;SDS011;23005;51.998;4.502;2022-09-01T09:57:14;8.40;;;2.40;;
37091;SDS011;23005;51.998;4.502;2022-09-01T09:59:14;9.07;;;2.15;;
37091;SDS011;23005;51.998;4.502;2022-09-01T10:01:34;6.55;;;2.50;;
37091;SDS011;23005;51.998;4.502;2022-09-01T10:03:34;6.43;;;2.22;;
37091;SDS011;23005;51.998;4.502;2022-09-01T10:05:35;7.43;;;2.00;;
37091;SDS011;23005;51.998;4.502;2022-09-01T10:07:29;7.78;;;1.90;;
37091;SDS011;23005;51.998;4.502;2022-09-01T10:09:32;6.00;;;2.13;;
37091;SDS011;23005;51.998;4.502;2022-09-01T10:11:25;10.15;;;2.05;;
37091;SDS011;23005;51.998;4.502;2022-09-01T10:13:24;6.07;;;1.48;;
37091;SDS011;23005;51.998;4.502;2022-09-01T10:15:16;8.90;;;1.75;;
37091;SDS011;23005;51.998;4.502;2022-09-01T10:19:01;8.90;;;1.60;;
37091;SDS011;23005;51.998;4.502;2022-09-01T10:22:45;4.38;;;1.65;;
37091;SDS011;23005;51.998;4.502;2022-09-01T10:24:39;8.68;;;1.60;;
37091;SDS011;23005;51.998;4.502;2022-09-01T10:26:35;4.80;;;1.90;;
37091;SDS011;23005;51.998;4.502;2022-09-01T10:28:29;10.02;;;1.75;;
37091;SDS011;23005;51.998;4.502;2022-09-01T10:30:21;3.70;;;1.50;;
37091;SDS011;23005;51.998;4.502;2022-09-01T10:32:12;4.45;;;1.48;;
37091;SDS011;23005;51.998;4.502;2022-09-01T10:34:26;7.65;;;1.88;;
37091;SDS011;23005;51.998;4.502;2022-09-01T10:36:21;7.45;;;1.65;;
37091;SDS011;23005;51.998;4.502;2022-09-01T10:38:14;5.95;;;1.45;;
37091;SDS011;23005;51.998;4.502;2022-09-01T10:40:20;3.95;;;1.30;;
37091;SDS011;23005;51.998;4.502;2022-09-01T10:42:32;4.68;;;1.50;;
37091;SDS011;23005;51.998;4.502;2022-09-01T10:44:23;8.10;;;1.48;;
37091;SDS011;23005;51.998;4.502;2022-09-01T10:48:41;7.35;;;1.45;;
37091;SDS011;23005;51.998;4.502;2022-09-01T10:50:46;9.60;;;1.77;;
37091;SDS011;23005;51.998;4.502;2022-09-01T10:52:55;6.80;;;1.50;;
37091;SDS011;23005;51.998;4.502;2022-09-01T10:54:52;8.45;;;1.58;;
37091;SDS011;23005;51.998;4.502;2022-09-01T10:56:48;4.28;;;1.70;;
37091;SDS011;23005;51.998;4.502;2022-09-01T10:58:43;8.45;;;1.65;;
37091;SDS011;23005;51.998;4.502;2022-09-01T11:00:58;5.20;;;1.70;;
37091;SDS011;23005;51.998;4.502;2022-09-01T11:03:31;7.38;;;1.65;;
37091;SDS011;23005;51.998;4.502;2022-09-01T11:06:01;6.45;;;1.40;;
37091;SDS011;23005;51.998;4.502;2022-09-01T11:08:23;3.10;;;1.50;;
37091;SDS011;23005;51.998;4.502;2022-09-01T11:10:38;2.90;;;1.40;;
37091;SDS011;23005;51.998;4.502;2022-09-01T11:12:41;5.00;;;1.63;;
37091;SDS011;23005;51.998;4.502;2022-09-01T11:14:45;9.80;;;1.80;;
37091;SDS011;23005;51.998;4.502;2022-09-01T11:16:37;6.10;;;1.60;;
37091;SDS011;23005;51.998;4.502;2022-09-01T11:18:38;10.20;;;1.73;;
37091;SDS011;23005;51.998;4.502;2022-09-01T11:20:30;10.00;;;1.70;;
37091;SDS011;23005;51.998;4.502;2022-09-01T11:22:27;4.90;;;1.75;;
37091;SDS011;23005;51.998;4.502;2022-09-01T11:26:47;10.77;;;1.60;;
37091;SDS011;23005;51.998;4.502;2022-09-01T11:28:39;8.90;;;2.13;;
37091;SDS011;23005;51.998;4.502;2022-09-01T11:32:39;4.40;;;1.73;;
37091;SDS011;23005;51.998;4.502;2022-09-01T11:34:39;5.38;;;1.40;;
37091;SDS011;23005;51.998;4.502;2022-09-01T11:36:30;10.93;;;1.60;;
37091;SDS011;23005;51.998;4.502;2022-09-01T11:38:24;4.53;;;1.27;;
37091;SDS011;23005;51.998;4.502;2022-09-01T11:40:18;5.18;;;1.30;;
37091;SDS011;23005;51.998;4.502;2022-09-01T11:42:11;9.85;;;1.40;;
37091;SDS011;23005;51.998;4.502;2022-09-01T11:44:10;11.88;;;1.95;;